ADDS METAR Data INFO
IDs: Format: Raw Decoded Include TAF

Data at: 1530 UTC 18 Jun 2018

KMCC 181515Z AUTO 17005KT 8SM CLR 17/12 A3003 RMK AO2
KMCC 181455Z AUTO 16004KT 8SM CLR 17/12 A3003 RMK AO2
KMCC 181435Z AUTO 15006KT 7SM CLR 16/12 A3002 RMK AO2
KMCC 181415Z AUTO 14006KT 6SM HZ CLR 15/12 A3002 RMK AO2
KMCC 181355Z AUTO 15005KT 6SM HZ CLR 15/12 A3002 RMK AO2
KMCC 181335Z AUTO 16006KT 7SM CLR 14/12 A3001 RMK AO2
KMCC 181315Z AUTO 14005KT 6SM HZ CLR 14/12 A3001 RMK AO2
KMCC 181255Z AUTO 13007KT 6SM BR CLR 14/12 A3000 RMK AO2
KMCC 181235Z AUTO 14007KT 8SM FEW038 14/11 A3000 RMK AO2
KMCC 181215Z AUTO 14007KT 8SM FEW032 SCT038 14/11 A2999 RMK AO2
KMCC 181155Z AUTO 15007KT 9SM FEW038 FEW049 14/11 A2999 RMK AO2
KMCC 181135Z AUTO 15008KT 10SM FEW047 14/11 A2998 RMK AO2
KMCC 181115Z AUTO 15007KT 10SM FEW045 BKN050 14/11 A2998 RMK AO2
KMCC 181055Z AUTO 16008KT 10SM FEW016 FEW039 OVC048 14/11 A2998 RMK AO2
KMCC 181035Z AUTO 15007KT 10SM FEW016 SCT039 BKN050 14/11 A2998 RMK AO2
KMCC 181015Z AUTO 15007KT 10SM SCT039 BKN050 15/11 A2998 RMK AO2
KMCC 180955Z AUTO 15006KT 10SM BKN041 OVC055 15/11 A2997 RMK AO2
KMCC 180935Z AUTO 14007KT 10SM SCT041 OVC065 15/11 A2997 RMK AO2
KMCC 180915Z AUTO 14008KT 10SM FEW041 OVC065 16/12 A2997 RMK AO2
KMCC 180855Z AUTO 14008KT 10SM OVC065 16/12 A2997 RMK AO2
KMCC 180835Z AUTO 14008KT 10SM OVC065 16/12 A2997 RMK AO2
KMCC 180815Z AUTO 13007KT 10SM OVC065 17/12 A2997 RMK AO2
KMCC 180755Z AUTO 13005KT 10SM OVC065 16/11 A2997 RMK AO2
KMCC 180735Z AUTO 13006KT 10SM OVC065 16/11 A2996 RMK AO2
KMCC 180715Z AUTO 13006KT 10SM OVC075 17/11 A2996 RMK AO2
KMCC 180655Z AUTO 16006KT 10SM OVC075 17/11 A2996 RMK AO2
KMCC 180635Z AUTO 16006KT 10SM OVC075 17/11 A2996 RMK AO2
KMCC 180615Z AUTO 18007KT 10SM BKN075 18/11 A2995 RMK AO2
KMCC 180555Z AUTO 17007KT 10SM FEW075 17/11 A2995 RMK AO2
KMCC 180535Z AUTO 00000KT 10SM SCT075 18/11 A2995 RMK AO2
KMCC 180515Z AUTO 20006KT 10SM CLR 19/11 A2994 RMK AO2
KMCC 180455Z AUTO 20005KT 10SM CLR 19/11 A2994 RMK AO2
KMCC 180435Z AUTO 20007KT 10SM CLR 19/11 A2993 RMK AO2
KMCC 180415Z AUTO 21009G14KT 10SM CLR 20/11 A2992 RMK AO2
KMCC 180355Z AUTO 22009KT 9SM CLR 21/11 A2991 RMK AO2
KMCC 180335Z AUTO 22008KT 10SM CLR 22/11 A2991 RMK AO2
KMCC 180315Z AUTO 22008KT 10SM CLR 23/11 A2990 RMK AO2
KMCC 180255Z AUTO 22009KT 10SM CLR 24/10 A2989 RMK AO2
KMCC 180235Z AUTO 21006KT 10SM CLR 25/08 A2989 RMK AO2
KMCC 180215Z AUTO 20004KT 10SM CLR 25/07 A2989 RMK AO2
KMCC 180155Z AUTO 22007KT 10SM CLR 25/07 A2988 RMK AO2
KMCC 180135Z AUTO 23004KT 10SM CLR 25/07 A2988 RMK AO2
KMCC 180115Z AUTO 14004KT 10SM CLR 25/07 A2988 RMK AO2
KMCC 180055Z AUTO 17007KT 10SM CLR 25/07 A2988 RMK AO2
KMCC 180035Z AUTO 20003KT 10SM CLR 25/07 A2988 RMK AO2
KMCC 180015Z AUTO 00000KT 10SM CLR 25/06 A2988 RMK AO2
KMCC 172355Z AUTO 17007KT 10SM CLR 25/05 A2989 RMK AO2
KMCC 172335Z AUTO 21009KT 140V230 10SM CLR 25/06 A2989 RMK AO2
KMCC 172315Z AUTO 21006KT 180V260 10SM CLR 24/07 A2989 RMK AO2
KMCC 172255Z AUTO 19006KT 150V220 10SM CLR 24/06 A2989 RMK AO2
KMCC 172235Z AUTO 17010G14KT 140V200 10SM CLR 24/07 A2990 RMK AO2
KMCC 172215Z AUTO 15007KT 10SM CLR 24/07 A2990 RMK AO2
KMCC 172155Z AUTO 13004KT 10SM CLR 24/07 A2991 RMK AO2
KMCC 172135Z AUTO 16007KT 10SM CLR 24/07 A2990 RMK AO2
KMCC 172115Z AUTO 19006KT 10SM CLR 23/07 A2990 RMK AO2
KMCC 172055Z AUTO 17006KT 10SM CLR 23/08 A2991 RMK AO2
KMCC 172035Z AUTO 19008KT 150V210 10SM CLR 22/08 A2991 RMK AO2
KMCC 172015Z AUTO 23009KT 10SM CLR 22/08 A2991 RMK AO2
KMCC 171955Z AUTO 20008KT 10SM CLR 22/08 A2991 RMK AO2
KMCC 171935Z AUTO 20008KT 10SM FEW043 21/08 A2992 RMK AO2
KMCC 171915Z AUTO 18008KT 10SM FEW038 21/08 A2992 RMK AO2
KMCC 171855Z AUTO 19005KT 10SM FEW036 20/09 A2992 RMK AO2
KMCC 171835Z AUTO 19009KT 10SM CLR 19/09 A2992 RMK AO2
KMCC 171815Z AUTO 19005KT 10SM FEW030 19/09 A2992 RMK AO2
KMCC 171755Z AUTO 19009KT 130V210 10SM SCT028 19/09 A2991 RMK AO2
KMCC 171735Z AUTO 23007KT 8SM BKN026 18/09 A2991 RMK AO2
KMCC 171715Z AUTO 18007KT 160V230 9SM BKN026 18/10 A2991 RMK AO2
KMCC 171655Z AUTO 20006KT 8SM OVC026 17/10 A2991 RMK AO2
KMCC 171635Z AUTO 19006KT 7SM BKN020 OVC027 15/10 A2991 RMK AO2
KMCC 171615Z AUTO 17004KT 7SM OVC018 15/10 A2991 RMK AO2
KMCC 171555Z AUTO 14008KT 7SM OVC018 15/10 A2990 RMK AO2
KMCC 171535Z AUTO 15007KT 7SM OVC018 14/09 A2989 RMK AO2
KMCC 171515Z AUTO 13007KT 7SM OVC018 14/09 A2989 RMK AO2
KMCC 171455Z AUTO 16007KT 7SM OVC018 14/10 A2989 RMK AO2
KMCC 171435Z AUTO 17009KT 8SM OVC018 14/10 A2988 RMK AO2
KMCC 171415Z AUTO 16009KT 7SM OVC018 14/10 A2987 RMK AO2
KMCC 171355Z AUTO 16008KT 6SM HZ BKN018 OVC027 14/10 A2986 RMK AO2
KMCC 171335Z AUTO 15007KT 5SM HZ BKN016 OVC027 13/10 A2985 RMK AO2
KMCC 171315Z AUTO 14008KT 6SM HZ FEW016 OVC027 13/10 A2984 RMK AO2
KMCC 171255Z AUTO 19009KT 6SM HZ OVC025 13/10 A2984 RMK AO2
KMCC 171235Z AUTO 20012G15KT 7SM OVC023 13/09 A2983 RMK AO2
KMCC 171215Z AUTO 20011KT 8SM OVC021 13/09 A2983 RMK AO2
KMCC 171155Z AUTO 20009G15KT 8SM OVC021 13/09 A2981 RMK AO2
KMCC 171135Z AUTO 17010KT 8SM OVC019 13/09 A2980 RMK AO2
KMCC 171115Z AUTO 17009KT 7SM OVC017 12/09 A2979 RMK AO2
KMCC 171055Z AUTO 17011KT 7SM OVC015 12/09 A2978 RMK AO2
KMCC 171035Z AUTO 18011G14KT 7SM OVC017 12/09 A2978 RMK AO2
KMCC 171015Z AUTO 17013G18KT 8SM BKN013 OVC019 12/09 A2977 RMK AO2
KMCC 170955Z AUTO 17013KT 8SM BKN013 BKN019 12/09 A2977 RMK AO2
KMCC 170935Z AUTO 17012KT 8SM BKN017 12/08 A2976 RMK AO2
KMCC 170915Z AUTO 16010KT 8SM BKN014 BKN021 12/08 A2977 RMK AO2
KMCC 170855Z AUTO 16010KT 8SM SCT014 BKN021 12/08 A2977 RMK AO2
KMCC 170835Z AUTO 16011G16KT 8SM BKN016 13/08 A2977 RMK AO2
KMCC 170815Z AUTO 16012G19KT 8SM BKN018 13/08 A2976 RMK AO2
KMCC 170755Z AUTO 17012G15KT 8SM OVC018 13/08 A2977 RMK AO2
KMCC 170735Z AUTO 17012KT 9SM BKN018 13/08 A2976 RMK AO2
KMCC 170715Z AUTO 17010G18KT 8SM BKN018 13/08 A2975 RMK AO2
KMCC 170655Z AUTO 18010G15KT 8SM BKN018 13/08 A2975 RMK AO2
KMCC 170635Z AUTO 18012G18KT 9SM BKN018 13/08 A2975 RMK AO2
KMCC 170615Z AUTO 17012G20KT 8SM BKN018 13/08 A2973 RMK AO2
KMCC 170555Z AUTO 16013G16KT 8SM BKN018 13/08 A2973 RMK AO2
KMCC 170535Z AUTO 19012G17KT 9SM SCT018 13/08 A2972 RMK AO2
KMCC 170515Z AUTO 20015G19KT 10SM FEW018 14/08 A2972 RMK AO2
KMCC 170455Z AUTO 19013G19KT 10SM FEW018 14/08 A2970 RMK AO2
KMCC 170435Z AUTO 18013G22KT 9SM FEW025 14/08 A2969 RMK AO2
KMCC 170415Z AUTO 21020G27KT 9SM CLR 15/08 A2967 RMK AO2
KMCC 170355Z AUTO 21018G23KT 8SM CLR 15/08 A2967 RMK AO2
KMCC 170335Z AUTO 20019G25KT 9SM CLR 16/09 A2966 RMK AO2